createdAt,value
2018-03-06T01:42:29.582Z,992.52
2018-03-06T01:42:30.153Z,992.51
2018-03-06T01:42:30.754Z,992.48
2018-03-06T01:42:31.353Z,992.49
2018-03-06T01:42:31.954Z,992.48
2018-03-06T01:42:32.553Z,992.48
2018-03-06T01:42:33.153Z,992.48
2018-03-06T01:42:33.752Z,992.48
2018-03-06T01:43:27.209Z,992.52
2018-03-06T01:43:27.813Z,992.53
2018-03-06T01:43:28.407Z,992.52
2018-03-06T01:43:29.006Z,992.51
2018-03-06T01:43:29.607Z,992.52
2018-03-06T01:43:30.206Z,992.52
2018-03-06T01:43:30.807Z,992.55
2018-03-06T01:43:31.406Z,992.49
2018-03-06T01:44:24.865Z,992.59
2018-03-06T01:44:25.458Z,992.57
2018-03-06T01:44:26.058Z,992.55
2018-03-06T01:44:26.659Z,992.56
2018-03-06T01:44:27.258Z,992.54
2018-03-06T01:44:27.857Z,992.57
2018-03-06T01:44:28.459Z,992.59
2018-03-06T01:44:29.057Z,992.60
2018-03-06T01:45:23.597Z,992.58
2018-03-06T01:45:24.134Z,992.56
2018-03-06T01:45:24.734Z,992.54
2018-03-06T01:45:25.333Z,992.57
2018-03-06T01:45:25.934Z,992.56
2018-03-06T01:45:26.534Z,992.57
2018-03-06T01:45:27.133Z,992.56
2018-03-06T01:45:27.731Z,992.58
2018-03-06T01:46:22.216Z,992.56
2018-03-06T01:46:22.810Z,992.55
2018-03-06T01:46:23.411Z,992.60
2018-03-06T01:46:24.011Z,992.55
2018-03-06T01:46:24.611Z,992.59
2018-03-06T01:46:25.211Z,992.57
2018-03-06T01:46:25.809Z,992.59
2018-03-06T01:46:26.408Z,992.58
2018-03-06T01:47:19.899Z,992.59
2018-03-06T01:47:20.463Z,992.59
2018-03-06T01:47:21.064Z,992.60
2018-03-06T01:47:21.670Z,992.62
2018-03-06T01:47:22.263Z,992.61
2018-03-06T01:47:22.863Z,992.58
2018-03-06T01:47:23.462Z,992.57
2018-03-06T01:47:24.062Z,992.57
2018-03-06T01:48:17.520Z,992.57
2018-03-06T01:48:18.116Z,992.55
2018-03-06T01:48:18.715Z,992.56
2018-03-06T01:48:19.317Z,992.58
2018-03-06T01:48:19.915Z,992.60
2018-03-06T01:48:20.520Z,992.57
2018-03-06T01:48:21.114Z,992.60
2018-03-06T01:48:21.715Z,992.56
2018-03-06T01:49:15.172Z,992.55
2018-03-06T01:49:15.773Z,992.55
2018-03-06T01:49:16.368Z,992.53
2018-03-06T01:49:16.970Z,992.59
2018-03-06T01:49:17.567Z,992.54
2018-03-06T01:49:18.166Z,992.55
2018-03-06T01:49:18.766Z,992.57
2018-03-06T01:49:19.366Z,992.54
2018-03-06T01:50:12.823Z,992.57
2018-03-06T01:50:13.420Z,992.53
2018-03-06T01:50:14.020Z,992.51
2018-03-06T01:50:14.622Z,992.53
2018-03-06T01:50:15.219Z,992.53
2018-03-06T01:50:15.818Z,992.52
2018-03-06T01:50:16.419Z,992.53
2018-03-06T01:50:17.018Z,992.46
2018-03-06T01:51:11.497Z,992.52
2018-03-06T01:51:12.095Z,992.53
2018-03-06T01:51:12.694Z,992.55
2018-03-06T01:51:13.296Z,992.54
2018-03-06T01:51:13.895Z,992.54
2018-03-06T01:51:14.495Z,992.54
2018-03-06T01:51:15.093Z,992.49
2018-03-06T01:51:15.693Z,992.50
2018-03-06T01:52:10.173Z,992.51
2018-03-06T01:52:10.771Z,992.55
2018-03-06T01:52:11.370Z,992.57
2018-03-06T01:52:11.972Z,992.51
2018-03-06T01:52:12.571Z,992.53
2018-03-06T01:52:13.170Z,992.55
2018-03-06T01:52:13.770Z,992.56
2018-03-06T01:52:14.370Z,992.54
2018-03-06T01:53:07.857Z,992.54
2018-03-06T01:53:08.426Z,992.52
2018-03-06T01:53:09.023Z,992.51
2018-03-06T01:53:09.623Z,992.52
2018-03-06T01:53:10.221Z,992.53
2018-03-06T01:53:10.822Z,992.53
2018-03-06T01:53:11.422Z,992.48
2018-03-06T01:53:12.022Z,992.53
2018-03-06T01:54:05.479Z,992.50
2018-03-06T01:54:06.075Z,992.52
2018-03-06T01:54:06.675Z,992.50
2018-03-06T01:54:07.277Z,992.49
2018-03-06T01:54:07.875Z,992.47
2018-03-06T01:54:08.475Z,992.49
2018-03-06T01:54:09.075Z,992.51
2018-03-06T01:54:09.674Z,992.53
2018-03-06T01:55:03.129Z,992.45
2018-03-06T01:55:03.729Z,992.47
2018-03-06T01:55:04.327Z,992.49
2018-03-06T01:55:04.928Z,992.47
2018-03-06T01:55:05.526Z,992.49
2018-03-06T01:55:06.126Z,992.41
2018-03-06T01:55:06.726Z,992.45
2018-03-06T01:55:07.327Z,992.46
2018-03-06T01:56:00.781Z,992.48
2018-03-06T01:56:01.381Z,992.45
2018-03-06T01:56:01.980Z,992.47
2018-03-06T01:56:02.578Z,992.43
2018-03-06T01:56:03.177Z,992.42
2018-03-06T01:56:03.777Z,992.46
2018-03-06T01:56:04.377Z,992.45
2018-03-06T01:56:04.977Z,992.47
2018-03-06T01:56:58.433Z,992.46
2018-03-06T01:56:59.031Z,992.47
2018-03-06T01:56:59.630Z,992.48
2018-03-06T01:57:00.247Z,992.45
2018-03-06T01:57:00.831Z,992.46
2018-03-06T01:57:01.430Z,992.45
2018-03-06T01:57:02.030Z,992.44
2018-03-06T01:57:02.629Z,992.44
2018-03-06T01:57:57.112Z,992.43
2018-03-06T01:57:57.705Z,992.45
2018-03-06T01:57:58.304Z,992.40
2018-03-06T01:57:58.904Z,992.43
2018-03-06T01:57:59.505Z,992.41
2018-03-06T01:58:00.104Z,992.44
2018-03-06T01:58:00.703Z,992.43
2018-03-06T01:58:01.312Z,992.42
2018-03-06T01:58:54.793Z,992.42
2018-03-06T01:58:55.359Z,992.42
2018-03-06T01:58:55.958Z,992.46
2018-03-06T01:58:56.558Z,992.43
2018-03-06T01:58:57.157Z,992.44
2018-03-06T01:58:57.757Z,992.45
2018-03-06T01:58:58.367Z,992.46
2018-03-06T01:58:58.959Z,992.45
2018-03-06T01:59:53.436Z,992.45
2018-03-06T01:59:54.037Z,992.44
2018-03-06T01:59:54.631Z,992.44
2018-03-06T01:59:55.232Z,992.42
2018-03-06T01:59:55.885Z,992.41
2018-03-06T01:59:56.434Z,992.42
2018-03-06T01:59:57.067Z,992.46
2018-03-06T01:59:57.679Z,992.41
2018-03-06T02:00:52.111Z,992.44
2018-03-06T02:00:52.708Z,992.45
2018-03-06T02:00:53.308Z,992.41
2018-03-06T02:00:53.912Z,992.40
2018-03-06T02:00:54.508Z,992.42
2018-03-06T02:00:55.106Z,992.44
2018-03-06T02:00:55.707Z,992.41
2018-03-06T02:00:56.307Z,992.40
2018-03-06T02:01:49.765Z,992.41
2018-03-06T02:01:50.363Z,992.40
2018-03-06T02:01:50.961Z,992.42
2018-03-06T02:01:51.562Z,992.44
2018-03-06T02:01:52.164Z,992.46
2018-03-06T02:01:52.760Z,992.41
2018-03-06T02:01:53.360Z,992.45
2018-03-06T02:01:53.960Z,992.44
2018-03-06T02:02:48.439Z,992.40
2018-03-06T02:02:49.035Z,992.38
2018-03-06T02:02:49.642Z,992.41
2018-03-06T02:02:50.236Z,992.40
2018-03-06T02:02:50.836Z,992.38
2018-03-06T02:02:51.435Z,992.38
2018-03-06T02:02:52.041Z,992.43
2018-03-06T02:02:52.638Z,992.42
2018-03-06T02:03:46.091Z,992.41
2018-03-06T02:03:46.690Z,992.40
2018-03-06T02:03:47.289Z,992.43
2018-03-06T02:03:47.889Z,992.44
2018-03-06T02:03:48.488Z,992.44
2018-03-06T02:03:49.090Z,992.42
2018-03-06T02:03:49.687Z,992.42
2018-03-06T02:03:50.287Z,992.43
2018-03-06T02:04:43.778Z,992.34
2018-03-06T02:04:44.342Z,992.41
2018-03-06T02:04:44.940Z,992.40
2018-03-06T02:04:45.541Z,992.38
2018-03-06T02:04:46.183Z,992.40
2018-03-06T02:04:46.740Z,992.38
2018-03-06T02:04:47.343Z,992.39
2018-03-06T02:04:47.940Z,992.38
2018-03-06T02:05:41.396Z,992.37
2018-03-06T02:05:41.995Z,992.38
2018-03-06T02:05:42.591Z,992.35
2018-03-06T02:05:43.192Z,992.38
2018-03-06T02:05:43.792Z,992.39
2018-03-06T02:05:44.392Z,992.35
2018-03-06T02:05:44.991Z,992.31
2018-03-06T02:05:45.592Z,992.37
2018-03-06T02:06:40.070Z,992.38
2018-03-06T02:06:40.666Z,992.33
2018-03-06T02:06:41.266Z,992.34
2018-03-06T02:06:41.866Z,992.34
2018-03-06T02:06:42.466Z,992.36
2018-03-06T02:06:43.065Z,992.36
2018-03-06T02:06:43.666Z,992.34
2018-03-06T02:06:44.267Z,992.34
2018-03-06T02:07:37.722Z,992.33
2018-03-06T02:07:38.319Z,992.34
2018-03-06T02:07:38.921Z,992.31
2018-03-06T02:07:39.519Z,992.32
2018-03-06T02:07:40.120Z,992.35
2018-03-06T02:07:40.723Z,992.29
2018-03-06T02:07:41.318Z,992.31
2018-03-06T02:07:41.916Z,992.34
2018-03-06T02:08:35.375Z,992.34
2018-03-06T02:08:35.973Z,992.36
2018-03-06T02:08:36.572Z,992.34
2018-03-06T02:08:37.172Z,992.33
2018-03-06T02:08:37.771Z,992.35
2018-03-06T02:08:38.370Z,992.34
2018-03-06T02:08:38.970Z,992.29
2018-03-06T02:08:39.571Z,992.33
2018-03-06T02:09:34.050Z,992.33
2018-03-06T02:09:34.646Z,992.35
2018-03-06T02:09:35.246Z,992.34
2018-03-06T02:09:35.846Z,992.36
2018-03-06T02:09:36.446Z,992.36
2018-03-06T02:09:37.044Z,992.33
2018-03-06T02:09:37.646Z,992.30
2018-03-06T02:09:38.245Z,992.33
2018-03-06T02:10:32.758Z,992.34
2018-03-06T02:10:33.322Z,992.29
2018-03-06T02:10:33.922Z,992.33
2018-03-06T02:10:34.522Z,992.26
2018-03-06T02:10:35.123Z,992.35
2018-03-06T02:10:35.722Z,992.32
2018-03-06T02:10:36.320Z,992.26
2018-03-06T02:10:36.920Z,992.31
2018-03-06T02:11:30.376Z,992.33
2018-03-06T02:11:30.974Z,992.32
2018-03-06T02:11:31.574Z,992.34
2018-03-06T02:11:32.181Z,992.35
2018-03-06T02:11:32.775Z,992.34
2018-03-06T02:11:33.374Z,992.34
2018-03-06T02:11:33.972Z,992.33
2018-03-06T02:11:34.573Z,992.34
2018-03-06T02:12:29.052Z,992.35
2018-03-06T02:12:29.649Z,992.31
2018-03-06T02:12:30.251Z,992.31
2018-03-06T02:12:30.849Z,992.34
2018-03-06T02:12:31.449Z,992.33
2018-03-06T02:12:32.049Z,992.33
2018-03-06T02:12:32.650Z,992.38
2018-03-06T02:12:33.249Z,992.33
2018-03-06T02:13:27.727Z,992.31
2018-03-06T02:13:28.326Z,992.32
2018-03-06T02:13:28.924Z,992.30
2018-03-06T02:13:29.525Z,992.33
2018-03-06T02:13:30.122Z,992.30
2018-03-06T02:13:30.723Z,992.29
2018-03-06T02:13:31.324Z,992.29
2018-03-06T02:13:31.923Z,992.30
2018-03-06T02:14:26.402Z,992.34
2018-03-06T02:14:26.999Z,992.34
2018-03-06T02:14:27.608Z,992.30
2018-03-06T02:14:28.202Z,992.28
2018-03-06T02:14:28.800Z,992.27
2018-03-06T02:14:29.399Z,992.29
2018-03-06T02:14:29.999Z,992.24
2018-03-06T02:14:30.599Z,992.28
2018-03-06T02:15:25.079Z,992.28
2018-03-06T02:15:25.676Z,992.29
2018-03-06T02:15:26.274Z,992.28
2018-03-06T02:15:26.882Z,992.27
2018-03-06T02:15:27.476Z,992.30
2018-03-06T02:15:28.076Z,992.26
2018-03-06T02:15:28.675Z,992.29
2018-03-06T02:15:29.275Z,992.30
2018-03-06T02:16:22.764Z,992.26
2018-03-06T02:16:23.328Z,992.28
2018-03-06T02:16:23.928Z,992.28
2018-03-06T02:16:24.528Z,992.29
2018-03-06T02:16:25.132Z,992.27
2018-03-06T02:16:25.728Z,992.22
2018-03-06T02:16:26.327Z,992.24
2018-03-06T02:16:26.928Z,992.25
2018-03-06T02:17:21.407Z,992.25
2018-03-06T02:17:22.002Z,992.26
2018-03-06T02:17:22.603Z,992.22
2018-03-06T02:17:23.204Z,992.23
2018-03-06T02:17:23.807Z,992.25
2018-03-06T02:17:24.402Z,992.25
2018-03-06T02:17:25.002Z,992.24
2018-03-06T02:17:25.602Z,992.20
2018-03-06T02:18:20.082Z,992.20
2018-03-06T02:18:20.679Z,992.26
2018-03-06T02:18:21.280Z,992.24
2018-03-06T02:18:21.884Z,992.23
2018-03-06T02:18:22.478Z,992.22
2018-03-06T02:18:23.078Z,992.19
2018-03-06T02:18:23.677Z,992.25
2018-03-06T02:18:24.278Z,992.22
2018-03-06T02:19:17.736Z,992.28
2018-03-06T02:19:18.332Z,992.29
2018-03-06T02:19:18.931Z,992.27
2018-03-06T02:19:19.531Z,992.26
2018-03-06T02:19:20.131Z,992.25
2018-03-06T02:19:20.731Z,992.29
2018-03-06T02:19:21.331Z,992.28
2018-03-06T02:19:21.930Z,992.29
2018-03-06T02:20:15.388Z,992.27
2018-03-06T02:20:15.985Z,992.25
2018-03-06T02:20:16.586Z,992.27
2018-03-06T02:20:17.182Z,992.25
2018-03-06T02:20:17.784Z,992.26
2018-03-06T02:20:18.383Z,992.27
2018-03-06T02:20:18.989Z,992.27
2018-03-06T02:20:19.581Z,992.24
2018-03-06T02:21:14.066Z,992.27
2018-03-06T02:21:14.658Z,992.26
2018-03-06T02:21:15.257Z,992.25
2018-03-06T02:21:15.858Z,992.26
2018-03-06T02:21:16.459Z,992.27
2018-03-06T02:21:17.056Z,992.25
2018-03-06T02:21:17.657Z,992.24
2018-03-06T02:21:18.257Z,992.21
2018-03-06T02:22:11.748Z,992.26
2018-03-06T02:22:12.311Z,992.28
2018-03-06T02:22:12.911Z,992.27
2018-03-06T02:22:13.510Z,992.29
2018-03-06T02:22:14.111Z,992.28
2018-03-06T02:22:14.710Z,992.26
2018-03-06T02:22:15.310Z,992.27
2018-03-06T02:22:15.909Z,992.30
2018-03-06T02:23:10.389Z,992.26
2018-03-06T02:23:10.987Z,992.25
2018-03-06T02:23:11.585Z,992.24
2018-03-06T02:23:12.186Z,992.26
2018-03-06T02:23:12.788Z,992.27
2018-03-06T02:23:13.385Z,992.24
2018-03-06T02:23:13.984Z,992.27
2018-03-06T02:23:14.584Z,992.27
2018-03-06T02:24:09.063Z,992.23
2018-03-06T02:24:09.663Z,992.27
2018-03-06T02:24:10.262Z,992.28
2018-03-06T02:24:10.862Z,992.26
2018-03-06T02:24:11.461Z,992.26
2018-03-06T02:24:12.061Z,992.24
2018-03-06T02:24:12.663Z,992.28
2018-03-06T02:24:13.260Z,992.26
2018-03-06T02:25:06.717Z,992.26
2018-03-06T02:25:07.315Z,992.28
2018-03-06T02:25:07.915Z,992.20
2018-03-06T02:25:08.515Z,992.24
2018-03-06T02:25:09.113Z,992.20
2018-03-06T02:25:09.714Z,992.25
2018-03-06T02:25:10.313Z,992.24
2018-03-06T02:25:10.913Z,992.26
2018-03-06T02:26:04.369Z,992.26
2018-03-06T02:26:04.966Z,992.29
2018-03-06T02:26:05.566Z,992.26
2018-03-06T02:26:06.165Z,992.22
2018-03-06T02:26:06.765Z,992.27
2018-03-06T02:26:07.365Z,992.25
2018-03-06T02:26:07.965Z,992.23
2018-03-06T02:26:08.565Z,992.24
2018-03-06T02:27:03.043Z,992.28
2018-03-06T02:27:03.640Z,992.28
2018-03-06T02:27:04.240Z,992.30
2018-03-06T02:27:04.841Z,992.25
2018-03-06T02:27:05.440Z,992.24
2018-03-06T02:27:06.040Z,992.25
2018-03-06T02:27:06.639Z,992.24
2018-03-06T02:27:07.238Z,992.24
2018-03-06T02:28:00.728Z,992.29
2018-03-06T02:28:01.294Z,992.28
2018-03-06T02:28:01.893Z,992.27
2018-03-06T02:28:02.492Z,992.27
2018-03-06T02:28:03.092Z,992.22
2018-03-06T02:28:03.692Z,992.26
2018-03-06T02:28:04.292Z,992.23
2018-03-06T02:28:04.919Z,992.25
2018-03-06T02:28:58.347Z,992.25
2018-03-06T02:28:58.945Z,992.28
2018-03-06T02:28:59.544Z,992.24
2018-03-06T02:29:00.144Z,992.22
2018-03-06T02:29:00.744Z,992.28
2018-03-06T02:29:01.344Z,992.23
2018-03-06T02:29:01.945Z,992.22
2018-03-06T02:29:02.544Z,992.25
2018-03-06T02:29:56.038Z,992.24
2018-03-06T02:29:56.597Z,992.28
2018-03-06T02:29:57.196Z,992.27
2018-03-06T02:29:57.796Z,992.24
2018-03-06T02:29:58.396Z,992.24
2018-03-06T02:29:58.996Z,992.28
2018-03-06T02:29:59.595Z,992.26
2018-03-06T02:30:00.198Z,992.28
2018-03-06T02:30:53.650Z,992.28
2018-03-06T02:30:54.254Z,992.26
2018-03-06T02:30:54.848Z,992.27
2018-03-06T02:30:55.448Z,992.29
2018-03-06T02:30:56.047Z,992.29
2018-03-06T02:30:56.646Z,992.26
2018-03-06T02:30:57.248Z,992.27
2018-03-06T02:30:57.851Z,992.25
2018-03-06T02:31:51.305Z,992.29
2018-03-06T02:31:51.903Z,992.28
2018-03-06T02:31:52.500Z,992.25
2018-03-06T02:31:53.099Z,992.23
2018-03-06T02:31:53.698Z,992.27
2018-03-06T02:31:54.297Z,992.29
2018-03-06T02:31:54.898Z,992.31
2018-03-06T02:31:55.497Z,992.29
2018-03-06T02:32:49.977Z,992.31
2018-03-06T02:32:50.574Z,992.26
2018-03-06T02:32:51.174Z,992.19
2018-03-06T02:32:51.774Z,992.29
2018-03-06T02:32:52.373Z,992.32
2018-03-06T02:32:52.977Z,992.29
2018-03-06T02:32:53.574Z,992.29
2018-03-06T02:32:54.172Z,992.29
2018-03-06T02:33:47.656Z,992.33
2018-03-06T02:33:48.240Z,992.32
2018-03-06T02:33:48.827Z,992.32
2018-03-06T02:33:49.427Z,992.29
2018-03-06T02:33:50.026Z,992.32
2018-03-06T02:33:50.626Z,992.32
2018-03-06T02:33:51.228Z,992.32
2018-03-06T02:33:51.826Z,992.34
2018-03-06T02:34:46.305Z,992.32
2018-03-06T02:34:46.904Z,992.33
2018-03-06T02:34:47.501Z,992.29
2018-03-06T02:34:48.102Z,992.29
2018-03-06T02:34:48.701Z,992.30
2018-03-06T02:34:49.301Z,992.32
2018-03-06T02:34:49.900Z,992.31
2018-03-06T02:34:50.500Z,992.32
2018-03-06T02:35:43.957Z,992.33
2018-03-06T02:35:44.555Z,992.31
2018-03-06T02:35:45.153Z,992.32
2018-03-06T02:35:45.754Z,992.32
2018-03-06T02:35:46.353Z,992.32
2018-03-06T02:35:46.956Z,992.28
2018-03-06T02:35:47.554Z,992.31
2018-03-06T02:35:48.153Z,992.30
2018-03-06T02:36:41.632Z,992.32
2018-03-06T02:36:42.204Z,992.29
2018-03-06T02:36:42.804Z,992.32
2018-03-06T02:36:43.407Z,992.31
2018-03-06T02:36:44.003Z,992.30
2018-03-06T02:36:44.603Z,992.27
2018-03-06T02:36:45.203Z,992.31
2018-03-06T02:36:45.803Z,992.23
2018-03-06T02:37:40.282Z,992.29
2018-03-06T02:37:40.880Z,992.29
2018-03-06T02:37:41.478Z,992.30
2018-03-06T02:37:42.079Z,992.30
2018-03-06T02:37:42.677Z,992.28
2018-03-06T02:37:43.278Z,992.30
2018-03-06T02:37:43.893Z,992.30
2018-03-06T02:37:44.477Z,992.31
2018-03-06T02:38:38.993Z,992.34
2018-03-06T02:38:39.554Z,992.30
2018-03-06T02:38:40.153Z,992.32
2018-03-06T02:38:40.756Z,992.31
2018-03-06T02:38:41.354Z,992.30
2018-03-06T02:38:41.953Z,992.29
2018-03-06T02:38:42.553Z,992.32
2018-03-06T02:38:43.154Z,992.32
2018-03-06T02:39:36.612Z,992.28
2018-03-06T02:39:37.207Z,992.32
2018-03-06T02:39:37.806Z,992.33
2018-03-06T02:57:20.375Z,992.31
2018-03-06T02:57:20.942Z,992.33
2018-03-06T02:57:21.540Z,992.28
2018-03-06T02:57:22.139Z,992.29
2018-03-06T02:57:22.738Z,992.32
2018-03-06T02:57:23.339Z,992.29
2018-03-06T02:57:23.938Z,992.32
2018-03-06T02:57:24.538Z,992.32
2018-03-06T02:58:17.999Z,992.31
2018-03-06T02:58:18.593Z,992.30
2018-03-06T02:58:19.193Z,992.29
2018-03-06T02:58:19.799Z,992.28
2018-03-06T02:58:20.393Z,992.33
2018-03-06T02:58:20.993Z,992.34
2018-03-06T02:58:21.592Z,992.31
2018-03-06T02:58:22.192Z,992.29
2018-03-06T02:59:15.648Z,992.31
2018-03-06T02:59:16.245Z,992.29
2018-03-06T02:59:16.846Z,992.31
2018-03-06T02:59:17.449Z,992.31
2018-03-06T02:59:18.046Z,992.31
2018-03-06T02:59:18.646Z,992.33
2018-03-06T02:59:19.245Z,992.31
2018-03-06T02:59:19.845Z,992.32
2018-03-06T03:00:14.324Z,992.31
2018-03-06T03:00:14.921Z,992.32
2018-03-06T03:00:15.521Z,992.32
2018-03-06T03:00:16.123Z,992.36
2018-03-06T03:00:16.723Z,992.34
2018-03-06T03:00:17.321Z,992.37
2018-03-06T03:00:17.920Z,992.34
2018-03-06T03:00:18.519Z,992.30
2018-03-06T03:01:11.976Z,992.33
2018-03-06T03:01:12.573Z,992.32
2018-03-06T03:01:13.212Z,992.35
2018-03-06T03:01:13.777Z,992.37
2018-03-06T03:01:14.373Z,992.33
2018-03-06T03:01:14.972Z,992.31
2018-03-06T03:01:15.577Z,992.35
2018-03-06T03:01:16.172Z,992.36
2018-03-06T03:02:09.633Z,992.34
2018-03-06T03:02:10.225Z,992.31
2018-03-06T03:02:10.826Z,992.33
2018-03-06T03:02:11.427Z,992.35
2018-03-06T03:02:12.025Z,992.33
2018-03-06T03:02:12.624Z,992.33
2018-03-06T03:02:13.226Z,992.32
2018-03-06T03:02:13.824Z,992.32
2018-03-06T03:03:08.336Z,992.35
2018-03-06T03:03:08.905Z,992.31
2018-03-06T03:03:09.500Z,992.31
2018-03-06T03:03:10.102Z,992.31
2018-03-06T03:03:10.701Z,992.31
2018-03-06T03:03:11.299Z,992.32
2018-03-06T03:03:11.900Z,992.30
2018-03-06T03:03:12.499Z,992.31
2018-03-06T03:04:06.980Z,992.31
2018-03-06T03:04:07.576Z,992.34
2018-03-06T03:04:08.177Z,992.27
2018-03-06T03:04:08.777Z,992.32
2018-03-06T03:04:09.375Z,992.30
2018-03-06T03:04:09.976Z,992.28
2018-03-06T03:04:10.576Z,992.23
2018-03-06T03:04:11.176Z,992.29
2018-03-06T03:05:04.632Z,992.29
2018-03-06T03:05:05.230Z,992.28
2018-03-06T03:05:05.829Z,992.24
2018-03-06T03:05:06.434Z,992.22
2018-03-06T03:05:07.028Z,992.22
2018-03-06T03:05:07.629Z,992.24
2018-03-06T03:05:08.229Z,992.23
2018-03-06T03:05:08.829Z,992.25
2018-03-06T03:06:02.284Z,992.27
2018-03-06T03:06:02.881Z,992.25
2018-03-06T03:06:03.482Z,992.30
2018-03-06T03:06:04.094Z,992.30
2018-03-06T03:06:04.682Z,992.29
2018-03-06T03:06:05.278Z,992.27
2018-03-06T03:06:05.880Z,992.28
2018-03-06T03:06:06.479Z,992.28
2018-03-06T03:06:59.936Z,992.25
2018-03-06T03:07:00.533Z,992.28
2018-03-06T03:07:01.133Z,992.26
2018-03-06T03:07:01.733Z,992.29
2018-03-06T03:07:02.332Z,992.32
2018-03-06T03:07:02.932Z,992.29
2018-03-06T03:07:03.532Z,992.30
2018-03-06T03:07:04.133Z,992.31
2018-03-06T03:07:57.591Z,992.29
2018-03-06T03:07:58.185Z,992.31
2018-03-06T03:07:58.785Z,992.28
2018-03-06T03:07:59.385Z,992.28
2018-03-06T03:07:59.985Z,992.34
2018-03-06T03:08:00.583Z,992.28
2018-03-06T03:08:01.184Z,992.26
2018-03-06T03:08:01.783Z,992.30
2018-03-06T03:08:56.296Z,992.26
2018-03-06T03:08:56.859Z,992.28
2018-03-06T03:08:57.459Z,992.30
2018-03-06T03:08:58.061Z,992.28
2018-03-06T03:08:58.659Z,992.28
2018-03-06T03:08:59.259Z,992.27
2018-03-06T03:08:59.858Z,992.26
2018-03-06T03:09:00.457Z,992.32
2018-03-06T03:09:53.929Z,992.26
2018-03-06T03:09:54.513Z,992.29
2018-03-06T03:09:55.114Z,992.31
2018-03-06T03:09:55.714Z,992.31
2018-03-06T03:09:56.311Z,992.27
2018-03-06T03:09:56.911Z,992.31
2018-03-06T03:09:57.512Z,992.30
2018-03-06T03:09:58.112Z,992.29
2018-03-06T03:10:51.569Z,992.28
2018-03-06T03:10:52.165Z,992.29
2018-03-06T03:10:52.764Z,992.31
2018-03-06T03:10:53.365Z,992.29
2018-03-06T03:10:53.964Z,992.34
2018-03-06T03:10:54.562Z,992.27
2018-03-06T03:10:55.164Z,992.30
2018-03-06T03:10:55.762Z,992.24
2018-03-06T03:11:50.242Z,992.27
2018-03-06T03:11:50.840Z,992.26
2018-03-06T03:11:51.438Z,992.25
2018-03-06T03:11:52.043Z,992.27
2018-03-06T03:11:52.639Z,992.28
2018-03-06T03:11:53.238Z,992.30
2018-03-06T03:11:53.838Z,992.26
2018-03-06T03:11:54.438Z,992.25
2018-03-06T03:12:48.917Z,992.30
2018-03-06T03:12:49.514Z,992.27
2018-03-06T03:12:50.116Z,992.26
2018-03-06T03:12:50.715Z,992.26
2018-03-06T03:12:51.314Z,992.26
2018-03-06T03:12:51.915Z,992.26
2018-03-06T03:12:52.514Z,992.27
2018-03-06T03:12:53.113Z,992.28
2018-03-06T03:13:47.594Z,992.27
2018-03-06T03:13:48.190Z,992.28
2018-03-06T03:13:48.790Z,992.26
2018-03-06T03:13:49.395Z,992.28
2018-03-06T03:13:49.990Z,992.29
2018-03-06T03:13:50.590Z,992.25
2018-03-06T03:13:51.192Z,992.27
2018-03-06T03:13:51.789Z,992.25
2018-03-06T03:14:45.287Z,992.28
2018-03-06T03:14:45.842Z,992.25
2018-03-06T03:14:46.444Z,992.27
2018-03-06T03:14:47.044Z,992.25
2018-03-06T03:14:47.642Z,992.28
2018-03-06T03:14:48.242Z,992.25
2018-03-06T03:14:48.846Z,992.24
2018-03-06T03:14:49.445Z,992.22
2018-03-06T03:15:42.897Z,992.27
2018-03-06T03:15:43.496Z,992.30
2018-03-06T03:15:44.096Z,992.28
2018-03-06T03:15:44.695Z,992.29
2018-03-06T03:15:45.296Z,992.27
2018-03-06T03:15:45.894Z,992.25
2018-03-06T03:15:46.497Z,992.25
2018-03-06T03:15:47.094Z,992.29
2018-03-06T03:16:40.549Z,992.31
2018-03-06T03:16:41.148Z,992.27
2018-03-06T03:16:41.747Z,992.32
2018-03-06T03:16:42.347Z,992.30
2018-03-06T03:16:42.945Z,992.27
2018-03-06T03:16:43.546Z,992.26
2018-03-06T03:16:44.145Z,992.27
2018-03-06T03:16:44.745Z,992.28
2018-03-06T03:17:38.203Z,992.31
2018-03-06T03:17:38.800Z,992.30
2018-03-06T03:17:39.398Z,992.31
2018-03-06T03:17:39.998Z,992.27
2018-03-06T03:17:40.598Z,992.27
2018-03-06T03:17:41.198Z,992.28
2018-03-06T03:17:41.798Z,992.24
2018-03-06T03:17:42.397Z,992.23
2018-03-06T03:18:35.854Z,992.26
2018-03-06T03:18:36.451Z,992.25
2018-03-06T03:18:37.049Z,992.26
2018-03-06T03:18:37.654Z,992.27
2018-03-06T03:18:38.249Z,992.25
2018-03-06T03:18:38.850Z,992.30
2018-03-06T03:18:39.450Z,992.26
2018-03-06T03:18:40.049Z,992.23
2018-03-06T03:19:33.507Z,992.29
2018-03-06T03:19:34.106Z,992.27
2018-03-06T03:19:34.704Z,992.28
2018-03-06T03:19:35.302Z,992.26
2018-03-06T03:19:35.901Z,992.28
2018-03-06T03:19:36.500Z,992.28
2018-03-06T03:19:37.101Z,992.26
2018-03-06T03:19:37.700Z,992.25
2018-03-06T03:20:32.239Z,992.31
2018-03-06T03:20:32.776Z,992.27
2018-03-06T03:20:33.375Z,992.29
2018-03-06T03:20:33.977Z,992.31
2018-03-06T03:20:34.576Z,992.27
2018-03-06T03:20:35.176Z,992.30
2018-03-06T03:20:35.776Z,992.27
2018-03-06T03:20:36.374Z,992.27
2018-03-06T03:21:30.855Z,992.28
2018-03-06T03:21:31.452Z,992.24
2018-03-06T03:21:32.052Z,992.25
2018-03-06T03:21:32.651Z,992.27
2018-03-06T03:21:33.252Z,992.24
2018-03-06T03:21:33.850Z,992.28
2018-03-06T03:21:34.455Z,992.29
2018-03-06T03:21:35.050Z,992.26
2018-03-06T03:22:28.509Z,992.32
2018-03-06T03:22:29.110Z,992.25
2018-03-06T03:22:29.704Z,992.26
2018-03-06T03:22:30.304Z,992.24
2018-03-06T03:22:30.904Z,992.27
2018-03-06T03:22:31.504Z,992.29
2018-03-06T03:22:32.104Z,992.29
2018-03-06T03:22:32.704Z,992.29
2018-03-06T03:23:26.162Z,992.29
2018-03-06T03:23:26.758Z,992.27
2018-03-06T03:23:27.357Z,992.26
2018-03-06T03:23:27.957Z,992.31
2018-03-06T03:23:28.557Z,992.29
2018-03-06T03:23:29.157Z,992.28
2018-03-06T03:23:29.757Z,992.24
2018-03-06T03:23:30.356Z,992.29
2018-03-06T03:24:24.835Z,992.29
2018-03-06T03:24:25.449Z,992.28
2018-03-06T03:24:26.031Z,992.29
2018-03-06T03:24:26.632Z,992.29
2018-03-06T03:24:27.230Z,992.32
2018-03-06T03:24:27.830Z,992.30
2018-03-06T03:24:28.431Z,992.32
2018-03-06T03:24:29.030Z,992.26
2018-03-06T03:25:22.488Z,992.35
2018-03-06T03:25:23.085Z,992.30
2018-03-06T03:25:23.685Z,992.30
2018-03-06T03:25:24.284Z,992.33
2018-03-06T03:25:24.884Z,992.35
2018-03-06T03:25:25.484Z,992.31
2018-03-06T03:25:26.090Z,992.29
2018-03-06T03:25:26.684Z,992.32
2018-03-06T03:26:21.187Z,992.33
2018-03-06T03:26:21.758Z,992.31
2018-03-06T03:26:22.359Z,992.34
2018-03-06T03:26:22.958Z,992.34
2018-03-06T03:26:23.558Z,992.32
2018-03-06T03:26:24.158Z,992.32
2018-03-06T03:26:24.757Z,992.32
2018-03-06T03:26:25.357Z,992.30
2018-03-06T03:27:19.836Z,992.34
2018-03-06T03:27:20.434Z,992.33
2018-03-06T03:27:21.035Z,992.30
2018-03-06T03:27:21.634Z,992.32
2018-03-06T03:27:22.246Z,992.33
2018-03-06T03:27:22.833Z,992.32
2018-03-06T03:27:23.433Z,992.26
2018-03-06T03:27:24.033Z,992.33
2018-03-06T03:28:18.512Z,992.34
2018-03-06T03:28:19.110Z,992.30
2018-03-06T03:28:19.710Z,992.32
2018-03-06T03:28:20.310Z,992.33
2018-03-06T03:28:20.915Z,992.30
2018-03-06T03:28:21.509Z,992.30
2018-03-06T03:28:22.108Z,992.32
2018-03-06T03:28:22.710Z,992.30
2018-03-06T03:29:16.165Z,992.32
2018-03-06T03:29:16.763Z,992.27
2018-03-06T03:29:17.366Z,992.30
2018-03-06T03:29:17.968Z,992.31
2018-03-06T03:29:18.560Z,992.29
2018-03-06T03:29:19.161Z,992.30
2018-03-06T03:29:19.760Z,992.29
2018-03-06T03:29:20.360Z,992.33
2018-03-06T03:30:13.820Z,992.31
2018-03-06T03:30:14.415Z,992.27